sensor_id;sensor_type;location;lat;lon;timestamp;P1;durP1;ratioP1;P2;durP2;ratioP2
17890;SDS011;9071;48.220;14.480;2022-10-31T00:04:27;70.77;;;13.67;;
17890;SDS011;9071;48.220;14.480;2022-10-31T00:09:29;76.93;;;14.67;;
17890;SDS011;9071;48.220;14.480;2022-10-31T00:14:32;54.23;;;12.67;;
17890;SDS011;9071;48.220;14.480;2022-10-31T00:19:34;42.17;;;12.37;;
17890;SDS011;9071;48.220;14.480;2022-10-31T00:24:36;51.90;;;12.80;;
17890;SDS011;9071;48.220;14.480;2022-10-31T00:29:40;42.37;;;12.40;;
17890;SDS011;9071;48.220;14.480;2022-10-31T00:34:42;29.47;;;11.53;;
17890;SDS011;9071;48.220;14.480;2022-10-31T00:39:44;75.53;;;13.43;;
17890;SDS011;9071;48.220;14.480;2022-10-31T00:44:50;37.03;;;11.93;;
17890;SDS011;9071;48.220;14.480;2022-10-31T00:49:52;38.03;;;11.83;;
17890;SDS011;9071;48.220;14.480;2022-10-31T00:54:54;93.17;;;15.50;;
17890;SDS011;9071;48.220;14.480;2022-10-31T00:59:57;92.73;;;15.40;;
17890;SDS011;9071;48.220;14.480;2022-10-31T01:04:59;90.97;;;20.10;;
17890;SDS011;9071;48.220;14.480;2022-10-31T01:10:02;106.70;;;24.53;;
17890;SDS011;9071;48.220;14.480;2022-10-31T01:15:06;50.87;;;17.93;;
17890;SDS011;9071;48.220;14.480;2022-10-31T01:20:11;67.40;;;24.13;;
17890;SDS011;9071;48.220;14.480;2022-10-31T01:25:14;41.17;;;20.23;;
17890;SDS011;9071;48.220;14.480;2022-10-31T01:30:18;86.60;;;19.37;;
17890;SDS011;9071;48.220;14.480;2022-10-31T01:35:20;57.50;;;15.47;;
17890;SDS011;9071;48.220;14.480;2022-10-31T01:40:22;37.23;;;12.80;;
17890;SDS011;9071;48.220;14.480;2022-10-31T01:45:25;77.60;;;14.50;;
17890;SDS011;9071;48.220;14.480;2022-10-31T01:50:28;84.80;;;14.90;;
17890;SDS011;9071;48.220;14.480;2022-10-31T01:55:34;38.60;;;12.27;;
17890;SDS011;9071;48.220;14.480;2022-10-31T02:00:42;42.97;;;11.50;;
17890;SDS011;9071;48.220;14.480;2022-10-31T02:05:46;37.50;;;11.17;;
17890;SDS011;9071;48.220;14.480;2022-10-31T02:10:49;25.67;;;10.90;;
17890;SDS011;9071;48.220;14.480;2022-10-31T02:15:54;85.43;;;12.90;;
17890;SDS011;9071;48.220;14.480;2022-10-31T02:21:00;41.23;;;11.27;;
17890;SDS011;9071;48.220;14.480;2022-10-31T02:26:19;52.10;;;13.13;;
17890;SDS011;9071;48.220;14.480;2022-10-31T02:31:45;28.60;;;10.63;;
17890;SDS011;9071;48.220;14.480;2022-10-31T02:36:56;17.50;;;9.73;;
17890;SDS011;9071;48.220;14.480;2022-10-31T02:42:03;54.60;;;12.47;;
17890;SDS011;9071;48.220;14.480;2022-10-31T02:47:11;60.20;;;12.83;;
17890;SDS011;9071;48.220;14.480;2022-10-31T02:52:18;55.10;;;11.70;;
17890;SDS011;9071;48.220;14.480;2022-10-31T02:57:22;33.10;;;11.03;;
17890;SDS011;9071;48.220;14.480;2022-10-31T03:02:33;27.27;;;10.90;;
17890;SDS011;9071;48.220;14.480;2022-10-31T03:07:43;44.70;;;10.57;;
17890;SDS011;9071;48.220;14.480;2022-10-31T03:12:55;47.90;;;11.53;;
17890;SDS011;9071;48.220;14.480;2022-10-31T03:18:04;44.40;;;11.33;;
17890;SDS011;9071;48.220;14.480;2022-10-31T03:23:11;35.93;;;10.10;;
17890;SDS011;9071;48.220;14.480;2022-10-31T03:28:15;21.57;;;9.97;;
17890;SDS011;9071;48.220;14.480;2022-10-31T03:33:23;28.87;;;11.60;;
17890;SDS011;9071;48.220;14.480;2022-10-31T03:38:30;26.27;;;10.80;;
17890;SDS011;9071;48.220;14.480;2022-10-31T03:43:36;36.73;;;13.77;;
17890;SDS011;9071;48.220;14.480;2022-10-31T03:48:45;59.63;;;14.97;;
17890;SDS011;9071;48.220;14.480;2022-10-31T03:53:49;57.07;;;14.63;;
17890;SDS011;9071;48.220;14.480;2022-10-31T03:58:57;29.73;;;11.17;;
17890;SDS011;9071;48.220;14.480;2022-10-31T04:04:02;26.53;;;11.70;;
17890;SDS011;9071;48.220;14.480;2022-10-31T04:09:06;27.53;;;10.93;;
17890;SDS011;9071;48.220;14.480;2022-10-31T04:14:10;51.30;;;11.97;;
17890;SDS011;9071;48.220;14.480;2022-10-31T04:19:14;35.30;;;12.47;;
17890;SDS011;9071;48.220;14.480;2022-10-31T04:24:16;28.70;;;13.17;;
17890;SDS011;9071;48.220;14.480;2022-10-31T04:29:18;28.53;;;11.57;;
17890;SDS011;9071;48.220;14.480;2022-10-31T04:34:22;24.67;;;11.07;;
17890;SDS011;9071;48.220;14.480;2022-10-31T04:39:24;34.83;;;10.43;;
17890;SDS011;9071;48.220;14.480;2022-10-31T04:44:26;33.37;;;11.27;;
17890;SDS011;9071;48.220;14.480;2022-10-31T04:49:29;32.10;;;10.80;;
17890;SDS011;9071;48.220;14.480;2022-10-31T04:54:31;59.30;;;12.53;;
17890;SDS011;9071;48.220;14.480;2022-10-31T04:59:33;91.03;;;16.57;;
17890;SDS011;9071;48.220;14.480;2022-10-31T05:04:36;92.17;;;24.30;;
17890;SDS011;9071;48.220;14.480;2022-10-31T05:09:38;93.03;;;31.50;;
17890;SDS011;9071;48.220;14.480;2022-10-31T05:14:40;114.67;;;21.53;;
17890;SDS011;9071;48.220;14.480;2022-10-31T05:19:44;90.63;;;22.90;;
17890;SDS011;9071;48.220;14.480;2022-10-31T05:24:46;96.30;;;31.17;;
17890;SDS011;9071;48.220;14.480;2022-10-31T05:29:48;77.13;;;16.00;;
17890;SDS011;9071;48.220;14.480;2022-10-31T05:34:51;95.40;;;17.70;;
17890;SDS011;9071;48.220;14.480;2022-10-31T05:39:53;101.47;;;23.17;;
17890;SDS011;9071;48.220;14.480;2022-10-31T05:44:55;157.27;;;26.70;;
17890;SDS011;9071;48.220;14.480;2022-10-31T05:49:59;163.13;;;23.20;;
17890;SDS011;9071;48.220;14.480;2022-10-31T05:55:01;206.63;;;22.70;;
17890;SDS011;9071;48.220;14.480;2022-10-31T06:00:03;176.13;;;26.17;;
17890;SDS011;9071;48.220;14.480;2022-10-31T06:05:08;64.97;;;19.00;;
17890;SDS011;9071;48.220;14.480;2022-10-31T06:10:10;111.13;;;17.10;;
17890;SDS011;9071;48.220;14.480;2022-10-31T06:15:12;110.77;;;18.57;;
17890;SDS011;9071;48.220;14.480;2022-10-31T06:20:16;67.53;;;15.37;;
17890;SDS011;9071;48.220;14.480;2022-10-31T06:25:18;58.93;;;14.20;;
17890;SDS011;9071;48.220;14.480;2022-10-31T06:30:20;32.87;;;13.57;;
17890;SDS011;9071;48.220;14.480;2022-10-31T06:35:24;101.97;;;16.67;;
17890;SDS011;9071;48.220;14.480;2022-10-31T06:40:26;75.83;;;15.90;;
17890;SDS011;9071;48.220;14.480;2022-10-31T06:45:28;52.47;;;12.20;;
17890;SDS011;9071;48.220;14.480;2022-10-31T06:50:32;86.97;;;13.87;;
17890;SDS011;9071;48.220;14.480;2022-10-31T06:55:34;201.80;;;18.03;;
17890;SDS011;9071;48.220;14.480;2022-10-31T07:00:36;169.37;;;15.97;;
17890;SDS011;9071;48.220;14.480;2022-10-31T07:05:39;85.60;;;12.43;;
17890;SDS011;9071;48.220;14.480;2022-10-31T07:10:42;130.00;;;14.33;;
17890;SDS011;9071;48.220;14.480;2022-10-31T07:15:52;126.03;;;14.93;;
17890;SDS011;9071;48.220;14.480;2022-10-31T07:20:56;23.90;;;10.63;;
17890;SDS011;9071;48.220;14.480;2022-10-31T07:25:58;70.23;;;13.23;;
17890;SDS011;9071;48.220;14.480;2022-10-31T07:31:01;105.37;;;13.73;;
17890;SDS011;9071;48.220;14.480;2022-10-31T07:36:04;82.50;;;15.33;;
17890;SDS011;9071;48.220;14.480;2022-10-31T07:41:07;144.93;;;16.70;;
17890;SDS011;9071;48.220;14.480;2022-10-31T07:46:10;74.83;;;15.23;;
17890;SDS011;9071;48.220;14.480;2022-10-31T07:51:13;86.17;;;15.53;;
17890;SDS011;9071;48.220;14.480;2022-10-31T07:56:15;73.27;;;14.63;;
17890;SDS011;9071;48.220;14.480;2022-10-31T08:01:17;57.73;;;17.80;;
17890;SDS011;9071;48.220;14.480;2022-10-31T08:06:21;61.27;;;18.13;;
17890;SDS011;9071;48.220;14.480;2022-10-31T08:11:23;57.17;;;19.97;;
17890;SDS011;9071;48.220;14.480;2022-10-31T08:16:25;46.93;;;19.40;;
17890;SDS011;9071;48.220;14.480;2022-10-31T08:21:29;37.93;;;16.70;;
17890;SDS011;9071;48.220;14.480;2022-10-31T08:26:32;59.37;;;16.73;;
17890;SDS011;9071;48.220;14.480;2022-10-31T08:31:35;36.00;;;14.70;;
17890;SDS011;9071;48.220;14.480;2022-10-31T08:36:38;39.87;;;14.93;;
17890;SDS011;9071;48.220;14.480;2022-10-31T08:41:40;29.87;;;13.93;;
17890;SDS011;9071;48.220;14.480;2022-10-31T08:46:42;43.30;;;15.20;;
17890;SDS011;9071;48.220;14.480;2022-10-31T08:51:48;24.13;;;12.97;;
17890;SDS011;9071;48.220;14.480;2022-10-31T08:56:53;29.63;;;15.57;;
17890;SDS011;9071;48.220;14.480;2022-10-31T09:01:55;46.80;;;22.43;;
17890;SDS011;9071;48.220;14.480;2022-10-31T09:06:59;37.03;;;18.20;;
17890;SDS011;9071;48.220;14.480;2022-10-31T09:12:01;33.23;;;19.87;;
17890;SDS011;9071;48.220;14.480;2022-10-31T09:17:03;37.00;;;18.67;;
17890;SDS011;9071;48.220;14.480;2022-10-31T09:22:06;35.07;;;19.60;;
17890;SDS011;9071;48.220;14.480;2022-10-31T09:27:08;32.83;;;20.30;;
17890;SDS011;9071;48.220;14.480;2022-10-31T09:32:10;32.50;;;20.57;;
17890;SDS011;9071;48.220;14.480;2022-10-31T09:37:13;31.20;;;17.77;;
17890;SDS011;9071;48.220;14.480;2022-10-31T09:42:22;34.20;;;20.97;;
17890;SDS011;9071;48.220;14.480;2022-10-31T09:47:38;39.97;;;23.30;;
17890;SDS011;9071;48.220;14.480;2022-10-31T09:52:54;73.80;;;24.43;;
17890;SDS011;9071;48.220;14.480;2022-10-31T09:58:03;38.43;;;23.33;;
17890;SDS011;9071;48.220;14.480;2022-10-31T10:03:07;40.13;;;24.03;;
17890;SDS011;9071;48.220;14.480;2022-10-31T10:08:17;47.03;;;28.10;;
17890;SDS011;9071;48.220;14.480;2022-10-31T10:13:26;46.77;;;28.40;;
17890;SDS011;9071;48.220;14.480;2022-10-31T10:18:41;45.90;;;26.20;;
17890;SDS011;9071;48.220;14.480;2022-10-31T10:23:57;50.53;;;30.17;;
17890;SDS011;9071;48.220;14.480;2022-10-31T10:29:14;40.87;;;27.83;;
17890;SDS011;9071;48.220;14.480;2022-10-31T10:34:27;42.47;;;25.20;;
17890;SDS011;9071;48.220;14.480;2022-10-31T10:39:35;50.73;;;27.50;;
17890;SDS011;9071;48.220;14.480;2022-10-31T10:44:42;53.30;;;31.43;;
17890;SDS011;9071;48.220;14.480;2022-10-31T10:50:05;55.30;;;30.97;;
17890;SDS011;9071;48.220;14.480;2022-10-31T10:55:14;58.67;;;33.13;;
17890;SDS011;9071;48.220;14.480;2022-10-31T11:00:24;68.43;;;36.43;;
17890;SDS011;9071;48.220;14.480;2022-10-31T11:05:30;69.57;;;36.90;;
17890;SDS011;9071;48.220;14.480;2022-10-31T11:10:38;76.13;;;38.33;;
17890;SDS011;9071;48.220;14.480;2022-10-31T11:15:49;74.97;;;37.33;;
17890;SDS011;9071;48.220;14.480;2022-10-31T11:20:54;73.40;;;38.97;;
17890;SDS011;9071;48.220;14.480;2022-10-31T11:26:00;68.50;;;38.00;;
17890;SDS011;9071;48.220;14.480;2022-10-31T11:31:05;71.40;;;40.73;;
17890;SDS011;9071;48.220;14.480;2022-10-31T11:36:14;64.60;;;39.20;;
17890;SDS011;9071;48.220;14.480;2022-10-31T11:41:24;71.10;;;39.40;;
17890;SDS011;9071;48.220;14.480;2022-10-31T11:46:29;67.67;;;37.63;;
17890;SDS011;9071;48.220;14.480;2022-10-31T11:51:34;54.60;;;34.10;;
17890;SDS011;9071;48.220;14.480;2022-10-31T11:56:41;57.93;;;37.57;;
17890;SDS011;9071;48.220;14.480;2022-10-31T12:01:46;55.90;;;33.73;;
17890;SDS011;9071;48.220;14.480;2022-10-31T12:06:49;57.40;;;34.10;;
17890;SDS011;9071;48.220;14.480;2022-10-31T12:17:35;44.40;;;29.50;;
17890;SDS011;9071;48.220;14.480;2022-10-31T12:22:44;46.37;;;28.73;;
17890;SDS011;9071;48.220;14.480;2022-10-31T12:27:58;46.80;;;29.57;;
17890;SDS011;9071;48.220;14.480;2022-10-31T12:33:14;44.07;;;28.77;;
17890;SDS011;9071;48.220;14.480;2022-10-31T12:38:30;47.53;;;30.33;;
17890;SDS011;9071;48.220;14.480;2022-10-31T12:43:52;46.13;;;29.70;;
17890;SDS011;9071;48.220;14.480;2022-10-31T12:49:07;47.60;;;29.57;;
17890;SDS011;9071;48.220;14.480;2022-10-31T12:54:40;44.67;;;29.83;;
17890;SDS011;9071;48.220;14.480;2022-10-31T13:00:00;39.47;;;26.33;;
17890;SDS011;9071;48.220;14.480;2022-10-31T13:05:06;38.03;;;24.23;;
17890;SDS011;9071;48.220;14.480;2022-10-31T13:10:16;36.87;;;23.83;;
17890;SDS011;9071;48.220;14.480;2022-10-31T13:15:24;39.43;;;24.67;;
17890;SDS011;9071;48.220;14.480;2022-10-31T13:20:29;28.53;;;20.37;;
17890;SDS011;9071;48.220;14.480;2022-10-31T13:25:38;30.63;;;20.83;;
17890;SDS011;9071;48.220;14.480;2022-10-31T13:30:45;37.03;;;23.70;;
17890;SDS011;9071;48.220;14.480;2022-10-31T13:35:49;34.07;;;24.00;;
17890;SDS011;9071;48.220;14.480;2022-10-31T13:40:56;33.00;;;21.70;;
17890;SDS011;9071;48.220;14.480;2022-10-31T13:51:27;33.70;;;22.10;;
17890;SDS011;9071;48.220;14.480;2022-10-31T13:56:30;37.50;;;25.20;;
17890;SDS011;9071;48.220;14.480;2022-10-31T14:01:35;33.33;;;22.83;;
17890;SDS011;9071;48.220;14.480;2022-10-31T14:06:49;35.87;;;24.43;;
17890;SDS011;9071;48.220;14.480;2022-10-31T14:11:57;44.03;;;30.00;;
17890;SDS011;9071;48.220;14.480;2022-10-31T14:17:04;53.57;;;33.00;;
17890;SDS011;9071;48.220;14.480;2022-10-31T14:22:18;38.60;;;28.27;;
17890;SDS011;9071;48.220;14.480;2022-10-31T14:27:32;38.37;;;27.30;;
17890;SDS011;9071;48.220;14.480;2022-10-31T14:32:38;35.33;;;25.20;;
17890;SDS011;9071;48.220;14.480;2022-10-31T14:43:40;38.57;;;27.93;;
17890;SDS011;9071;48.220;14.480;2022-10-31T14:48:57;34.90;;;27.50;;
17890;SDS011;9071;48.220;14.480;2022-10-31T14:54:18;50.80;;;31.23;;
17890;SDS011;9071;48.220;14.480;2022-10-31T14:59:24;46.07;;;29.90;;
17890;SDS011;9071;48.220;14.480;2022-10-31T15:04:34;48.50;;;32.37;;
17890;SDS011;9071;48.220;14.480;2022-10-31T15:09:37;49.40;;;33.57;;
17890;SDS011;9071;48.220;14.480;2022-10-31T15:14:40;52.80;;;33.97;;
17890;SDS011;9071;48.220;14.480;2022-10-31T15:19:44;58.00;;;37.33;;
17890;SDS011;9071;48.220;14.480;2022-10-31T15:24:47;61.37;;;36.00;;
17890;SDS011;9071;48.220;14.480;2022-10-31T15:29:56;61.73;;;36.40;;
17890;SDS011;9071;48.220;14.480;2022-10-31T15:34:59;63.47;;;36.63;;
17890;SDS011;9071;48.220;14.480;2022-10-31T15:40:06;57.53;;;34.10;;
17890;SDS011;9071;48.220;14.480;2022-10-31T15:45:17;58.83;;;33.57;;
17890;SDS011;9071;48.220;14.480;2022-10-31T15:50:25;57.93;;;32.70;;
17890;SDS011;9071;48.220;14.480;2022-10-31T15:55:32;62.40;;;35.27;;
17890;SDS011;9071;48.220;14.480;2022-10-31T16:00:38;74.30;;;39.83;;
17890;SDS011;9071;48.220;14.480;2022-10-31T16:05:44;71.30;;;39.93;;
17890;SDS011;9071;48.220;14.480;2022-10-31T16:10:48;70.47;;;37.97;;
17890;SDS011;9071;48.220;14.480;2022-10-31T16:15:54;71.47;;;38.93;;
17890;SDS011;9071;48.220;14.480;2022-10-31T16:21:00;61.17;;;34.53;;
17890;SDS011;9071;48.220;14.480;2022-10-31T16:26:05;55.73;;;31.10;;
17890;SDS011;9071;48.220;14.480;2022-10-31T16:31:12;52.20;;;30.50;;
17890;SDS011;9071;48.220;14.480;2022-10-31T16:36:32;51.13;;;29.83;;
17890;SDS011;9071;48.220;14.480;2022-10-31T16:41:39;48.63;;;30.07;;
17890;SDS011;9071;48.220;14.480;2022-10-31T16:46:42;48.57;;;28.47;;
17890;SDS011;9071;48.220;14.480;2022-10-31T16:51:45;46.30;;;27.77;;
17890;SDS011;9071;48.220;14.480;2022-10-31T16:56:47;37.93;;;23.17;;
17890;SDS011;9071;48.220;14.480;2022-10-31T17:01:50;37.17;;;23.00;;
17890;SDS011;9071;48.220;14.480;2022-10-31T17:06:53;34.60;;;21.97;;
17890;SDS011;9071;48.220;14.480;2022-10-31T17:11:55;35.47;;;22.57;;
17890;SDS011;9071;48.220;14.480;2022-10-31T17:16:57;31.20;;;19.57;;
17890;SDS011;9071;48.220;14.480;2022-10-31T17:22:02;28.20;;;19.70;;
17890;SDS011;9071;48.220;14.480;2022-10-31T17:27:05;28.53;;;19.33;;
17890;SDS011;9071;48.220;14.480;2022-10-31T17:32:07;30.10;;;19.07;;
17890;SDS011;9071;48.220;14.480;2022-10-31T17:37:10;31.23;;;19.03;;
17890;SDS011;9071;48.220;14.480;2022-10-31T17:42:12;29.97;;;18.77;;
17890;SDS011;9071;48.220;14.480;2022-10-31T17:47:14;30.47;;;18.60;;
17890;SDS011;9071;48.220;14.480;2022-10-31T17:52:18;28.87;;;17.73;;
17890;SDS011;9071;48.220;14.480;2022-10-31T17:57:20;27.53;;;18.03;;
17890;SDS011;9071;48.220;14.480;2022-10-31T18:02:22;29.33;;;17.73;;
17890;SDS011;9071;48.220;14.480;2022-10-31T18:07:25;28.33;;;19.27;;
17890;SDS011;9071;48.220;14.480;2022-10-31T18:12:27;29.10;;;18.67;;
17890;SDS011;9071;48.220;14.480;2022-10-31T18:17:31;33.57;;;20.43;;
17890;SDS011;9071;48.220;14.480;2022-10-31T18:22:34;30.13;;;19.47;;
17890;SDS011;9071;48.220;14.480;2022-10-31T18:27:36;31.47;;;20.13;;
17890;SDS011;9071;48.220;14.480;2022-10-31T18:32:38;32.03;;;20.03;;
17890;SDS011;9071;48.220;14.480;2022-10-31T18:37:42;27.53;;;19.50;;
17890;SDS011;9071;48.220;14.480;2022-10-31T18:42:44;32.20;;;20.40;;
17890;SDS011;9071;48.220;14.480;2022-10-31T18:47:46;30.03;;;19.53;;
17890;SDS011;9071;48.220;14.480;2022-10-31T18:52:52;31.87;;;19.57;;
17890;SDS011;9071;48.220;14.480;2022-10-31T18:57:54;33.40;;;19.23;;
17890;SDS011;9071;48.220;14.480;2022-10-31T19:02:56;30.50;;;18.87;;
17890;SDS011;9071;48.220;14.480;2022-10-31T19:07:59;30.87;;;18.93;;
17890;SDS011;9071;48.220;14.480;2022-10-31T19:13:01;32.43;;;18.73;;
17890;SDS011;9071;48.220;14.480;2022-10-31T19:18:04;36.17;;;21.97;;
17890;SDS011;9071;48.220;14.480;2022-10-31T19:23:08;36.13;;;21.63;;
17890;SDS011;9071;48.220;14.480;2022-10-31T19:28:10;28.40;;;17.77;;
17890;SDS011;9071;48.220;14.480;2022-10-31T19:33:12;26.33;;;17.13;;
17890;SDS011;9071;48.220;14.480;2022-10-31T19:38:15;25.80;;;16.00;;
17890;SDS011;9071;48.220;14.480;2022-10-31T19:43:17;25.60;;;16.07;;
17890;SDS011;9071;48.220;14.480;2022-10-31T19:48:19;22.23;;;14.33;;
17890;SDS011;9071;48.220;14.480;2022-10-31T19:53:22;23.10;;;13.60;;
17890;SDS011;9071;48.220;14.480;2022-10-31T19:58:24;24.63;;;15.00;;
17890;SDS011;9071;48.220;14.480;2022-10-31T20:03:27;22.00;;;13.97;;
17890;SDS011;9071;48.220;14.480;2022-10-31T20:08:30;22.03;;;14.03;;
17890;SDS011;9071;48.220;14.480;2022-10-31T20:13:35;23.37;;;14.70;;
17890;SDS011;9071;48.220;14.480;2022-10-31T20:18:37;21.13;;;14.27;;
17890;SDS011;9071;48.220;14.480;2022-10-31T20:23:41;22.20;;;14.30;;
17890;SDS011;9071;48.220;14.480;2022-10-31T20:28:43;22.70;;;13.93;;
17890;SDS011;9071;48.220;14.480;2022-10-31T20:33:45;17.73;;;12.50;;
17890;SDS011;9071;48.220;14.480;2022-10-31T20:38:50;19.23;;;12.80;;
17890;SDS011;9071;48.220;14.480;2022-10-31T20:43:52;18.37;;;12.57;;
17890;SDS011;9071;48.220;14.480;2022-10-31T20:48:55;18.73;;;12.17;;
17890;SDS011;9071;48.220;14.480;2022-10-31T20:53:58;19.10;;;12.30;;
17890;SDS011;9071;48.220;14.480;2022-10-31T20:59:01;20.97;;;12.63;;
17890;SDS011;9071;48.220;14.480;2022-10-31T21:04:03;19.17;;;12.47;;
17890;SDS011;9071;48.220;14.480;2022-10-31T21:09:09;18.90;;;11.30;;
17890;SDS011;9071;48.220;14.480;2022-10-31T21:14:11;19.33;;;11.27;;
17890;SDS011;9071;48.220;14.480;2022-10-31T21:19:13;17.33;;;10.83;;
17890;SDS011;9071;48.220;14.480;2022-10-31T21:24:16;19.47;;;11.10;;
17890;SDS011;9071;48.220;14.480;2022-10-31T21:29:20;19.77;;;11.57;;
17890;SDS011;9071;48.220;14.480;2022-10-31T21:34:22;21.77;;;12.17;;
17890;SDS011;9071;48.220;14.480;2022-10-31T21:39:26;20.83;;;11.80;;
17890;SDS011;9071;48.220;14.480;2022-10-31T21:44:28;21.07;;;11.90;;
17890;SDS011;9071;48.220;14.480;2022-10-31T21:49:30;19.33;;;11.20;;
17890;SDS011;9071;48.220;14.480;2022-10-31T21:54:33;21.23;;;11.60;;
17890;SDS011;9071;48.220;14.480;2022-10-31T21:59:36;19.77;;;11.17;;
17890;SDS011;9071;48.220;14.480;2022-10-31T22:04:40;20.87;;;12.73;;
17890;SDS011;9071;48.220;14.480;2022-10-31T22:09:44;22.73;;;12.80;;
17890;SDS011;9071;48.220;14.480;2022-10-31T22:14:47;22.23;;;12.13;;
17890;SDS011;9071;48.220;14.480;2022-10-31T22:19:49;21.20;;;12.67;;
17890;SDS011;9071;48.220;14.480;2022-10-31T22:24:52;23.87;;;12.33;;
17890;SDS011;9071;48.220;14.480;2022-10-31T22:29:54;24.27;;;12.90;;
17890;SDS011;9071;48.220;14.480;2022-10-31T22:34:57;23.83;;;13.87;;
17890;SDS011;9071;48.220;14.480;2022-10-31T22:40:01;25.27;;;13.67;;
17890;SDS011;9071;48.220;14.480;2022-10-31T22:45:03;21.90;;;13.43;;
17890;SDS011;9071;48.220;14.480;2022-10-31T22:50:06;20.87;;;13.07;;
17890;SDS011;9071;48.220;14.480;2022-10-31T22:55:10;25.67;;;13.73;;
17890;SDS011;9071;48.220;14.480;2022-10-31T23:00:14;23.27;;;14.03;;
17890;SDS011;9071;48.220;14.480;2022-10-31T23:05:17;23.93;;;14.70;;
17890;SDS011;9071;48.220;14.480;2022-10-31T23:10:20;23.00;;;13.83;;
17890;SDS011;9071;48.220;14.480;2022-10-31T23:15:35;27.07;;;15.37;;
17890;SDS011;9071;48.220;14.480;2022-10-31T23:20:37;24.17;;;14.80;;
17890;SDS011;9071;48.220;14.480;2022-10-31T23:25:42;25.27;;;15.37;;
17890;SDS011;9071;48.220;14.480;2022-10-31T23:31:02;25.93;;;15.63;;
17890;SDS011;9071;48.220;14.480;2022-10-31T23:36:04;28.77;;;15.07;;
17890;SDS011;9071;48.220;14.480;2022-10-31T23:41:08;28.90;;;15.90;;
17890;SDS011;9071;48.220;14.480;2022-10-31T23:46:10;26.60;;;14.60;;
17890;SDS011;9071;48.220;14.480;2022-10-31T23:51:12;26.87;;;15.80;;
17890;SDS011;9071;48.220;14.480;2022-10-31T23:56:16;24.67;;;14.57;;
